Time;durP1;ratioP1;P1;durP2;ratioP2;P2;SDS_P1;SDS_P2;PMS_P1;PMS_P2;Temp;Humidity;BMP_temperature;BMP_pressure;BME280_temperature;BME280_humidity;BME280_pressure;Samples;Min_cycle;Max_cycle;Signal;HPM_P1;HPM_P2
2023/09/07 00:01:05;;;;;;;8.77;4.72;;;15.60;75.70;;;;;;4901230;29;20121;-92
2023/09/07 00:03:32;;;;;;;11.47;5.70;;;15.60;75.60;;;;;;4885931;29;20063;-92
2023/09/07 00:05:59;;;;;;;9.45;5.35;;;15.50;75.60;;;;;;4901420;29;20139;-90
2023/09/07 00:08:26;;;;;;;11.65;5.57;;;15.50;75.70;;;;;;4900991;29;20044;-91
2023/09/07 00:10:54;;;;;;;11.20;5.47;;;15.40;76.10;;;;;;4870122;29;20044;-92
2023/09/07 00:13:21;;;;;;;11.07;5.22;;;15.40;76.50;;;;;;4901079;29;20127;-92
2023/09/07 00:15:48;;;;;;;8.80;4.53;;;15.30;76.40;;;;;;4883065;29;20116;-91
2023/09/07 00:18:15;;;;;;;9.98;5.20;;;15.30;76.20;;;;;;4901276;29;20052;-91
2023/09/07 00:20:45;;;;;;;10.10;4.65;;;15.20;76.20;;;;;;4901400;29;20052;-91
2023/09/07 00:23:12;;;;;;;13.13;6.30;;;15.20;76.20;;;;;;4901120;29;20085;-92
2023/09/07 00:25:39;;;;;;;13.10;5.82;;;15.10;76.60;;;;;;4897728;29;20061;-91
2023/09/07 00:28:06;;;;;;;12.40;5.13;;;15.20;77.10;;;;;;4882373;29;20464;-91
2023/09/07 00:30:33;;;;;;;12.20;5.47;;;15.20;76.60;;;;;;4881005;29;20077;-91
2023/09/07 00:33:00;;;;;;;11.35;5.85;;;15.30;76.30;;;;;;4900937;29;20089;-92
2023/09/07 00:35:27;;;;;;;11.05;5.72;;;15.30;76.50;;;;;;4900745;29;20047;-92
2023/09/07 00:37:54;;;;;;;10.25;5.82;;;15.30;76.50;;;;;;4885548;29;20049;-92
2023/09/07 00:40:22;;;;;;;11.43;6.00;;;15.30;76.30;;;;;;4900607;29;20068;-91
2023/09/07 00:42:49;;;;;;;12.00;6.45;;;15.30;76.40;;;;;;4882255;29;20117;-91
2023/09/07 00:45:16;;;;;;;12.00;6.20;;;15.20;76.30;;;;;;4872065;29;20152;-91
2023/09/07 00:47:45;;;;;;;12.43;6.25;;;15.20;76.20;;;;;;4897236;29;20041;-90
2023/09/07 00:50:19;;;;;;;10.88;6.15;;;15.10;77.30;;;;;;4884533;29;20055;-92
2023/09/07 00:52:47;;;;;;;10.70;6.40;;;15.00;77.70;;;;;;4900583;29;20055;-91
2023/09/07 00:55:14;;;;;;;12.82;6.43;;;15.10;77.30;;;;;;4900206;29;20037;-92
2023/09/07 00:57:42;;;;;;;10.20;5.70;;;15.10;77.20;;;;;;4884771;29;20130;-91
2023/09/07 01:00:10;;;;;;;10.88;5.65;;;15.10;77.20;;;;;;4900842;29;20107;-91
2023/09/07 01:02:37;;;;;;;12.07;5.60;;;15.10;76.70;;;;;;4885005;29;20052;-91
2023/09/07 01:05:05;;;;;;;11.20;5.50;;;15.10;76.90;;;;;;4900551;29;20052;-91
2023/09/07 01:07:34;;;;;;;11.48;5.70;;;15.10;76.80;;;;;;4892565;29;20044;-92
2023/09/07 01:10:03;;;;;;;11.15;5.80;;;15.20;76.70;;;;;;4900478;29;20048;-92
2023/09/07 01:12:31;;;;;;;9.48;5.13;;;15.10;76.90;;;;;;4885011;29;20045;-92
2023/09/07 01:14:58;;;;;;;13.30;6.25;;;15.10;76.90;;;;;;4897029;29;20140;-92
2023/09/07 01:17:25;;;;;;;9.90;5.00;;;15.10;76.90;;;;;;4884165;29;20502;-91
2023/09/07 01:19:54;;;;;;;10.10;5.15;;;15.10;77.30;;;;;;4868985;29;20064;-92
2023/09/07 01:22:24;;;;;;;10.23;5.82;;;15.10;77.40;;;;;;4899757;29;20054;-90
2023/09/07 01:24:52;;;;;;;9.95;5.25;;;15.00;77.40;;;;;;4884285;29;20073;-91
2023/09/07 01:27:20;;;;;;;9.13;5.15;;;15.00;77.40;;;;;;4899989;29;20044;-91
2023/09/07 01:29:47;;;;;;;11.30;5.23;;;15.00;77.50;;;;;;4898573;29;20515;-92
2023/09/07 01:32:14;;;;;;;9.43;5.20;;;15.00;77.60;;;;;;4899320;29;20048;-92
2023/09/07 01:34:41;;;;;;;11.63;5.93;;;15.00;77.60;;;;;;4873548;29;20045;-92
2023/09/07 01:37:08;;;;;;;13.20;5.63;;;15.00;77.50;;;;;;4886627;29;20510;-92
2023/09/07 01:39:36;;;;;;;11.93;5.65;;;15.00;77.50;;;;;;4899092;29;20104;-91
2023/09/07 01:42:04;;;;;;;11.90;5.53;;;15.00;77.50;;;;;;4884038;29;20551;-92
2023/09/07 01:44:31;;;;;;;10.23;5.20;;;15.00;77.60;;;;;;4883794;29;20048;-92
2023/09/07 01:46:58;;;;;;;11.90;6.00;;;15.00;78.00;;;;;;4899464;29;20095;-92
2023/09/07 01:49:26;;;;;;;14.63;6.05;;;14.90;77.90;;;;;;4869306;29;20466;-91
2023/09/07 01:51:53;;;;;;;10.93;5.40;;;14.90;78.20;;;;;;4899420;29;20053;-93
2023/09/07 01:54:23;;;;;;;11.70;5.63;;;14.90;78.40;;;;;;4899581;29;20053;-92
2023/09/07 01:56:51;;;;;;;10.93;5.25;;;14.90;78.30;;;;;;4883880;29;20079;-92
2023/09/07 01:59:18;;;;;;;11.48;5.85;;;14.80;78.10;;;;;;4895867;29;20049;-92
2023/09/07 02:01:45;;;;;;;11.10;6.10;;;14.90;77.70;;;;;;4899083;29;20048;-92
2023/09/07 02:04:12;;;;;;;10.40;5.18;;;14.90;77.70;;;;;;4883681;29;20108;-92
2023/09/07 02:06:40;;;;;;;11.27;5.03;;;14.90;77.70;;;;;;4895988;29;20092;-92
2023/09/07 02:09:07;;;;;;;11.90;5.63;;;14.90;77.70;;;;;;4876600;29;20453;-92
2023/09/07 02:11:36;;;;;;;10.50;5.60;;;14.90;77.90;;;;;;4895823;29;20384;-91
2023/09/07 02:14:03;;;;;;;10.70;5.40;;;14.90;77.70;;;;;;4883621;29;20135;-91
2023/09/07 02:16:30;;;;;;;11.02;6.15;;;14.90;77.50;;;;;;4883559;29;20040;-92
2023/09/07 02:19:06;;;;;;;10.47;5.50;;;14.90;77.50;;;;;;4888811;29;20045;-91
2023/09/07 02:21:33;;;;;;;10.77;5.47;;;14.90;77.60;;;;;;4883270;29;20049;-91
2023/09/07 02:24:00;;;;;;;11.32;5.85;;;14.90;77.80;;;;;;4879850;29;20575;-91
2023/09/07 02:26:27;;;;;;;10.00;5.10;;;14.80;77.70;;;;;;4898480;29;20052;-91
2023/09/07 02:28:55;;;;;;;11.30;5.70;;;14.80;77.60;;;;;;4883249;29;20056;-92
2023/09/07 02:31:23;;;;;;;10.50;5.93;;;14.80;77.50;;;;;;4898830;29;20117;-91
2023/09/07 02:33:50;;;;;;;11.43;5.40;;;14.70;77.80;;;;;;4867368;29;20044;-91
2023/09/07 02:36:17;;;;;;;11.05;5.45;;;14.70;77.70;;;;;;4897185;29;20037;-91
2023/09/07 02:38:45;;;;;;;9.88;5.10;;;14.80;77.40;;;;;;4898212;29;20161;-91
2023/09/07 02:41:12;;;;;;;10.40;5.43;;;14.70;77.30;;;;;;4882711;29;20040;-91
2023/09/07 02:43:39;;;;;;;10.00;5.10;;;14.70;77.30;;;;;;4867326;29;20056;-91
2023/09/07 02:46:06;;;;;;;10.50;4.93;;;14.70;77.30;;;;;;4883081;29;20071;-91
2023/09/07 02:48:33;;;;;;;12.32;5.55;;;14.70;76.90;;;;;;4882710;29;20406;-91
2023/09/07 02:51:01;;;;;;;10.65;5.30;;;14.70;76.90;;;;;;4898387;29;20041;-90
2023/09/07 02:53:29;;;;;;;10.63;5.40;;;14.60;76.90;;;;;;4898695;29;20053;-91
2023/09/07 02:55:56;;;;;;;9.83;4.70;;;14.60;76.80;;;;;;4898388;29;20045;-91
2023/09/07 02:58:24;;;;;;;9.13;4.90;;;14.60;77.00;;;;;;4895242;29;20048;-91
2023/09/07 03:00:52;;;;;;;10.05;5.10;;;14.60;76.80;;;;;;4876409;29;20040;-91
2023/09/07 03:03:22;;;;;;;10.15;5.10;;;14.50;76.40;;;;;;4898203;29;20072;-91
2023/09/07 03:05:49;;;;;;;10.88;5.07;;;14.50;76.20;;;;;;4886927;29;20055;-91
2023/09/07 03:08:17;;;;;;;10.90;4.97;;;14.50;76.50;;;;;;4882832;29;20076;-92
2023/09/07 03:10:44;;;;;;;9.85;4.70;;;14.50;76.50;;;;;;4898582;29;20477;-92
2023/09/07 03:13:11;;;;;;;12.23;5.72;;;14.50;76.10;;;;;;4874908;29;20045;-92
2023/09/07 03:15:39;;;;;;;9.73;4.75;;;14.50;75.90;;;;;;4867397;29;20044;-92
2023/09/07 03:18:10;;;;;;;9.48;4.90;;;14.40;75.90;;;;;;4882614;29;20063;-91
2023/09/07 03:20:38;;;;;;;12.67;4.50;;;14.40;76.00;;;;;;4898244;29;20067;-92
2023/09/07 03:23:06;;;;;;;10.65;4.78;;;14.40;75.60;;;;;;4882585;29;20076;-93
2023/09/07 03:25:35;;;;;;;10.93;5.38;;;14.30;75.80;;;;;;4897926;29;20052;-92
2023/09/07 03:28:03;;;;;;;9.88;5.43;;;14.30;76.10;;;;;;4898409;29;20041;-94
2023/09/07 03:30:33;;;;;;;10.90;5.78;;;14.30;76.40;;;;;;4867518;29;20049;-92
2023/09/07 03:33:00;;;;;;;9.73;5.07;;;14.30;76.80;;;;;;4898383;29;20072;-92
2023/09/07 03:35:29;;;;;;;10.10;5.32;;;14.30;77.00;;;;;;4883132;29;20482;-92
2023/09/07 03:37:56;;;;;;;9.90;5.05;;;14.30;77.00;;;;;;4882551;29;20056;-92
2023/09/07 03:40:23;;;;;;;11.15;5.60;;;14.30;77.10;;;;;;4882588;29;20060;-92
2023/09/07 03:42:50;;;;;;;10.02;5.57;;;14.20;77.20;;;;;;4869537;29;20067;-92
2023/09/07 03:45:17;;;;;;;11.47;5.60;;;14.30;77.10;;;;;;4868731;29;20077;-92
2023/09/07 03:47:45;;;;;;;12.82;6.10;;;14.30;77.10;;;;;;4868790;29;20045;-93
2023/09/07 03:50:15;;;;;;;12.93;6.10;;;14.20;77.20;;;;;;4869384;29;20045;-93
2023/09/07 03:52:42;;;;;;;11.35;6.15;;;14.20;77.40;;;;;;4867795;29;20045;-94
2023/09/07 03:55:09;;;;;;;13.77;6.38;;;14.10;77.80;;;;;;4865375;29;20563;-90
2023/09/07 03:57:37;;;;;;;11.47;5.90;;;14.20;78.10;;;;;;4864536;29;20079;-92
2023/09/07 04:00:08;;;;;;;14.40;6.93;;;14.10;78.20;;;;;;4863687;29;20055;-91
2023/09/07 04:02:46;;;;;;;14.15;7.22;;;14.10;78.50;;;;;;4879188;29;20049;-90
2023/09/07 04:05:14;;;;;;;11.35;6.60;;;14.00;78.80;;;;;;4863388;29;20045;-91
2023/09/07 04:07:41;;;;;;;10.88;6.50;;;14.10;78.70;;;;;;4879172;29;20136;-91
2023/09/07 04:10:08;;;;;;;11.67;6.37;;;14.10;78.50;;;;;;4863482;29;20077;-91
2023/09/07 04:12:36;;;;;;;13.43;6.65;;;14.20;78.30;;;;;;4879682;29;20046;-92
2023/09/07 04:15:04;;;;;;;14.60;7.43;;;14.10;78.40;;;;;;4864162;29;20049;-93
2023/09/07 04:17:39;;;;;;;11.73;7.22;;;14.10;78.70;;;;;;4864593;29;20051;-92
2023/09/07 04:20:09;;;;;;;15.13;7.88;;;14.10;78.90;;;;;;4864332;29;20045;-93
2023/09/07 04:22:36;;;;;;;18.37;9.43;;;14.10;78.90;;;;;;4849106;29;20049;-93
2023/09/07 04:25:03;;;;;;;21.30;9.38;;;14.10;79.10;;;;;;4864366;29;20107;-93
2023/09/07 04:27:31;;;;;;;15.52;8.00;;;14.00;79.50;;;;;;4864233;29;20075;-92
2023/09/07 04:29:59;;;;;;;12.32;7.05;;;14.00;79.40;;;;;;4887524;29;20048;-91
2023/09/07 04:32:26;;;;;;;18.10;8.65;;;14.00;79.10;;;;;;4882121;29;20147;-91
2023/09/07 04:34:59;;;;;;;18.67;8.70;;;14.00;79.10;;;;;;4885614;29;20040;-91
2023/09/07 04:37:26;;;;;;;13.27;7.88;;;14.10;79.00;;;;;;4885497;29;20075;-91
2023/09/07 04:39:53;;;;;;;15.23;7.93;;;14.10;78.70;;;;;;4885514;29;20463;-91
2023/09/07 04:42:22;;;;;;;14.35;7.88;;;14.10;78.30;;;;;;4885494;29;20422;-91
2023/09/07 04:44:49;;;;;;;14.82;8.68;;;14.10;78.30;;;;;;4900470;29;20055;-91
2023/09/07 04:47:16;;;;;;;15.40;6.77;;;14.10;78.60;;;;;;4900648;29;20049;-90
2023/09/07 04:49:50;;;;;;;14.57;6.55;;;14.10;78.90;;;;;;4885035;29;20135;-89
2023/09/07 04:52:20;;;;;;;12.30;5.93;;;14.00;78.60;;;;;;4884745;29;20422;-90
2023/09/07 04:54:47;;;;;;;11.18;5.70;;;14.00;79.00;;;;;;4885209;29;20045;-90
2023/09/07 04:57:18;;;;;;;11.48;5.47;;;14.00;78.60;;;;;;4885188;29;20052;-90
2023/09/07 04:59:46;;;;;;;10.10;5.50;;;14.10;78.20;;;;;;4881810;29;20055;-91
2023/09/07 05:02:13;;;;;;;10.93;6.05;;;14.10;78.40;;;;;;4871298;29;20052;-92
2023/09/07 05:04:40;;;;;;;11.00;5.85;;;14.10;78.90;;;;;;4900630;29;20044;-90
2023/09/07 05:07:08;;;;;;;10.65;5.80;;;14.10;79.00;;;;;;4884812;29;20052;-90
2023/09/07 05:09:35;;;;;;;12.82;5.90;;;14.00;78.90;;;;;;4897032;29;20448;-90
2023/09/07 05:12:02;;;;;;;12.57;7.20;;;14.10;79.20;;;;;;4866436;29;20056;-92
2023/09/07 05:14:30;;;;;;;13.10;6.75;;;14.10;79.50;;;;;;4866508;29;20045;-89
2023/09/07 05:16:57;;;;;;;14.07;7.03;;;14.10;79.70;;;;;;4866123;29;20051;-91
2023/09/07 05:19:25;;;;;;;13.13;6.45;;;14.20;79.90;;;;;;4881417;29;20064;-90
2023/09/07 05:21:52;;;;;;;11.70;6.43;;;14.30;79.70;;;;;;4866239;29;20395;-90
2023/09/07 05:24:19;;;;;;;12.53;6.97;;;14.20;79.90;;;;;;4866389;29;20049;-91
2023/09/07 05:26:46;;;;;;;11.77;6.10;;;14.30;80.40;;;;;;4883799;29;20044;-91
2023/09/07 05:29:13;;;;;;;11.95;6.25;;;14.30;80.30;;;;;;4900070;29;20113;-92
2023/09/07 05:31:41;;;;;;;11.85;6.55;;;14.40;80.50;;;;;;4899555;29;20442;-91
2023/09/07 05:34:08;;;;;;;11.60;5.80;;;14.50;80.50;;;;;;4884412;29;20067;-91
2023/09/07 05:36:35;;;;;;;12.90;6.07;;;14.60;80.50;;;;;;4884343;29;20040;-92
2023/09/07 05:39:03;;;;;;;13.25;6.68;;;14.60;81.10;;;;;;4869134;29;20059;-91
2023/09/07 05:41:31;;;;;;;10.32;6.03;;;14.70;80.90;;;;;;4884467;29;20160;-91
2023/09/07 05:43:59;;;;;;;13.07;6.40;;;14.80;80.60;;;;;;4884140;29;20052;-91
2023/09/07 05:46:26;;;;;;;11.52;7.00;;;14.90;80.60;;;;;;4884443;29;20148;-91
2023/09/07 05:48:54;;;;;;;13.70;6.77;;;15.00;80.60;;;;;;4884144;29;20055;-92
2023/09/07 05:51:21;;;;;;;13.27;6.95;;;15.10;80.40;;;;;;4899605;29;20049;-91
2023/09/07 05:53:48;;;;;;;13.52;7.03;;;15.20;80.30;;;;;;4899748;29;20051;-92
2023/09/07 05:56:15;;;;;;;11.07;6.63;;;15.30;80.70;;;;;;4884228;29;20052;-92
2023/09/07 05:58:42;;;;;;;13.73;6.13;;;15.40;80.50;;;;;;4899445;29;20053;-91
2023/09/07 06:01:10;;;;;;;11.83;6.43;;;15.50;80.20;;;;;;4899518;29;20110;-92
2023/09/07 06:03:39;;;;;;;13.80;6.50;;;15.60;80.00;;;;;;4899506;29;20418;-91
2023/09/07 06:06:06;;;;;;;13.30;6.47;;;15.70;79.90;;;;;;4883676;29;20105;-90
2023/09/07 06:08:33;;;;;;;14.45;6.70;;;15.80;79.50;;;;;;4868299;29;20068;-91
2023/09/07 06:11:01;;;;;;;11.32;6.35;;;16.00;79.40;;;;;;4883859;29;20040;-91
2023/09/07 06:13:28;;;;;;;10.33;5.50;;;16.00;79.20;;;;;;4899389;29;20044;-91
2023/09/07 06:15:56;;;;;;;12.90;6.07;;;16.20;78.70;;;;;;4868547;29;20140;-90
2023/09/07 06:18:23;;;;;;;11.38;6.28;;;16.30;78.20;;;;;;4883656;29;20053;-92
2023/09/07 06:20:50;;;;;;;11.70;6.50;;;16.30;78.00;;;;;;4868310;29;20059;-92
2023/09/07 06:23:18;;;;;;;12.32;6.65;;;16.40;78.70;;;;;;4868156;29;20058;-91
2023/09/07 06:25:45;;;;;;;12.03;6.07;;;16.50;78.40;;;;;;4883873;29;20071;-91
2023/09/07 06:28:12;;;;;;;11.07;5.53;;;16.60;78.20;;;;;;4883723;29;20151;-91
2023/09/07 06:30:40;;;;;;;11.77;6.10;;;16.70;77.00;;;;;;4883382;29;20063;-92
2023/09/07 06:33:07;;;;;;;16.13;6.10;;;16.80;76.60;;;;;;4883783;29;20055;-90
2023/09/07 06:35:34;;;;;;;13.98;7.00;;;16.80;76.80;;;;;;4899154;29;20068;-92
2023/09/07 06:38:02;;;;;;;11.17;6.10;;;16.90;76.70;;;;;;4883618;29;20139;-92
2023/09/07 06:40:29;;;;;;;12.95;6.13;;;17.00;76.40;;;;;;4883311;29;20569;-91
2023/09/07 06:42:57;;;;;;;10.63;6.05;;;17.10;76.10;;;;;;4898921;29;20052;-92
2023/09/07 06:45:26;;;;;;;11.95;6.15;;;17.30;75.70;;;;;;4868289;29;20139;-90
2023/09/07 06:47:53;;;;;;;10.40;5.90;;;17.40;75.80;;;;;;4898808;29;20052;-91
2023/09/07 06:50:23;;;;;;;11.47;5.87;;;17.50;75.70;;;;;;4868172;29;20135;-92
2023/09/07 06:52:51;;;;;;;9.90;5.85;;;17.60;75.30;;;;;;4898607;29;20406;-91
2023/09/07 06:55:18;;;;;;;12.18;6.07;;;17.80;75.10;;;;;;4867687;29;20049;-91
2023/09/07 06:57:47;;;;;;;10.73;5.90;;;17.90;75.20;;;;;;4882943;29;20445;-91
2023/09/07 07:00:14;;;;;;;15.20;6.78;;;18.00;74.60;;;;;;4898461;29;20051;-92
2023/09/07 07:02:42;;;;;;;12.13;6.53;;;18.10;74.90;;;;;;4898486;29;20057;-92
2023/09/07 07:05:10;;;;;;;12.15;6.05;;;18.20;75.10;;;;;;4867372;29;20139;-93
2023/09/07 07:07:38;;;;;;;11.77;6.05;;;18.30;74.70;;;;;;4898651;29;20131;-91
2023/09/07 07:10:06;;;;;;;11.18;5.15;;;18.40;74.50;;;;;;4882683;29;20052;-91
2023/09/07 07:12:38;;;;;;;11.68;5.55;;;18.50;74.10;;;;;;4867918;29;20134;-91
2023/09/07 07:15:07;;;;;;;12.50;6.47;;;18.50;74.30;;;;;;4882906;29;20136;-91
2023/09/07 07:17:34;;;;;;;11.60;5.50;;;18.60;73.60;;;;;;4882875;29;20040;-92
2023/09/07 07:20:01;;;;;;;12.25;6.03;;;18.60;74.50;;;;;;4882666;29;20057;-92
2023/09/07 07:22:28;;;;;;;12.23;6.28;;;18.70;74.00;;;;;;4882946;29;20157;-91
2023/09/07 07:24:56;;;;;;;11.70;5.72;;;18.80;74.50;;;;;;4882887;29;20578;-92
2023/09/07 07:27:23;;;;;;;13.03;6.63;;;19.00;74.00;;;;;;4898198;29;20048;-91
2023/09/07 07:29:51;;;;;;;14.27;6.55;;;19.10;75.10;;;;;;4882619;29;20503;-92
2023/09/07 07:32:19;;;;;;;13.95;6.60;;;19.10;74.60;;;;;;4898193;29;20048;-92
2023/09/07 07:34:48;;;;;;;12.02;6.63;;;19.30;74.50;;;;;;4898238;29;20419;-91
2023/09/07 07:37:15;;;;;;;10.55;5.72;;;19.30;74.10;;;;;;4898063;29;20048;-91
2023/09/07 07:39:42;;;;;;;13.20;6.30;;;19.40;73.70;;;;;;4883039;29;20064;-92
2023/09/07 07:42:12;;;;;;;12.15;6.57;;;19.50;73.70;;;;;;4898583;29;20048;-90
2023/09/07 07:44:40;;;;;;;12.30;6.65;;;19.60;74.60;;;;;;4897876;29;20055;-90
2023/09/07 07:47:07;;;;;;;12.98;5.50;;;19.70;74.20;;;;;;4898209;29;20053;-92
2023/09/07 07:49:36;;;;;;;11.90;5.30;;;19.90;74.30;;;;;;4882624;29;20075;-91
2023/09/07 07:52:04;;;;;;;11.67;5.80;;;20.00;72.90;;;;;;4898068;29;20496;-91
2023/09/07 07:54:33;;;;;;;9.77;4.90;;;20.10;72.10;;;;;;4898082;29;20456;-91
2023/09/07 07:57:01;;;;;;;11.75;5.68;;;20.20;71.80;;;;;;4867124;29;20049;-91
2023/09/07 07:59:29;;;;;;;10.50;5.00;;;20.30;70.50;;;;;;4898222;29;20144;-92
2023/09/07 08:01:56;;;;;;;12.43;5.07;;;20.40;70.40;;;;;;4898028;29;20052;-92
2023/09/07 08:04:24;;;;;;;11.27;5.33;;;20.40;70.60;;;;;;4867106;29;20052;-92
2023/09/07 08:06:56;;;;;;;12.63;5.00;;;20.50;70.80;;;;;;4891263;29;20060;-91
2023/09/07 08:09:23;;;;;;;12.93;6.03;;;20.60;70.60;;;;;;4900974;29;20542;-92
2023/09/07 08:11:51;;;;;;;10.73;5.28;;;20.80;70.20;;;;;;4886037;29;20040;-91
2023/09/07 08:14:18;;;;;;;9.85;4.95;;;20.80;69.20;;;;;;4886051;29;20044;-92
2023/09/07 08:16:46;;;;;;;10.50;4.77;;;20.90;68.80;;;;;;4901894;29;20510;-92
2023/09/07 08:19:14;;;;;;;11.70;4.47;;;21.00;70.00;;;;;;4885691;29;20052;-93
2023/09/07 08:21:42;;;;;;;13.27;6.80;;;21.00;69.50;;;;;;4901571;29;20119;-91
2023/09/07 08:24:09;;;;;;;11.40;5.72;;;21.10;68.30;;;;;;4901552;29;20053;-92
2023/09/07 08:26:37;;;;;;;9.60;4.60;;;21.10;67.90;;;;;;4885768;29;20108;-92
2023/09/07 08:29:08;;;;;;;12.47;4.87;;;21.20;68.30;;;;;;4901203;29;20587;-92
2023/09/07 08:31:38;;;;;;;10.82;5.57;;;21.20;68.00;;;;;;4885579;29;20060;-93
2023/09/07 08:34:09;;;;;;;11.77;4.53;;;21.30;68.20;;;;;;4870166;29;20414;-92
2023/09/07 08:36:36;;;;;;;10.73;4.80;;;21.30;66.80;;;;;;4885428;29;20140;-92
2023/09/07 08:39:10;;;;;;;8.48;4.55;;;21.40;67.20;;;;;;4885398;29;20053;-92
2023/09/07 08:41:43;;;;;;;10.60;4.77;;;21.30;65.50;;;;;;4900950;29;20087;-91
2023/09/07 08:44:27;;;;;;;10.98;4.00;;;21.40;65.90;;;;;;4887572;29;20506;-92
2023/09/07 08:46:55;;;;;;;8.82;4.28;;;21.40;64.40;;;;;;4900729;29;20104;-93
2023/09/07 08:49:25;;;;;;;9.38;4.57;;;21.40;65.90;;;;;;4901137;29;20053;-92
2023/09/07 08:51:54;;;;;;;9.43;4.78;;;21.50;65.10;;;;;;4900591;29;20063;-92
2023/09/07 08:54:23;;;;;;;9.73;4.37;;;21.60;63.60;;;;;;4885156;29;20052;-92
2023/09/07 08:56:50;;;;;;;10.38;4.50;;;21.60;64.00;;;;;;4884994;29;20122;-93
2023/09/07 08:59:17;;;;;;;14.68;6.05;;;21.60;64.70;;;;;;4885099;29;20063;-91
2023/09/07 09:01:44;;;;;;;10.32;4.47;;;21.80;65.50;;;;;;4900549;29;20541;-92
2023/09/07 09:04:13;;;;;;;10.52;4.70;;;21.90;64.50;;;;;;4900366;29;20053;-92
2023/09/07 09:06:40;;;;;;;12.10;5.67;;;22.00;64.30;;;;;;4900641;29;20097;-92
2023/09/07 09:09:07;;;;;;;8.95;4.55;;;22.10;64.20;;;;;;4900432;29;20059;-92
2023/09/07 09:11:34;;;;;;;11.32;4.25;;;22.10;63.40;;;;;;4900470;29;20044;-92
2023/09/07 09:14:06;;;;;;;9.82;4.35;;;22.20;61.50;;;;;;4900372;29;20101;-91
2023/09/07 09:16:33;;;;;;;8.77;4.07;;;22.20;61.70;;;;;;4884690;29;20059;-92
2023/09/07 09:19:00;;;;;;;10.43;4.57;;;22.20;62.20;;;;;;4899800;29;20045;-91
2023/09/07 09:21:27;;;;;;;10.85;4.13;;;22.30;62.20;;;;;;4900359;29;20054;-92
2023/09/07 09:23:57;;;;;;;10.38;4.75;;;22.30;60.30;;;;;;4900233;29;20499;-92
2023/09/07 09:26:24;;;;;;;12.23;4.50;;;22.30;60.20;;;;;;4884404;29;20076;-92
2023/09/07 09:28:56;;;;;;;9.45;4.63;;;22.30;61.40;;;;;;4900078;29;20044;-92
2023/09/07 09:31:24;;;;;;;10.03;4.67;;;22.30;60.40;;;;;;4884294;29;20109;-92
2023/09/07 09:33:52;;;;;;;11.65;4.50;;;22.40;62.50;;;;;;4884595;29;20441;-92
2023/09/07 09:36:20;;;;;;;9.02;4.40;;;22.50;61.10;;;;;;4900040;29;20045;-92
2023/09/07 09:38:53;;;;;;;11.50;5.20;;;22.50;60.20;;;;;;4884189;29;20085;-91
2023/09/07 09:41:21;;;;;;;10.52;5.07;;;22.60;61.30;;;;;;4900065;29;20139;-92
2023/09/07 09:43:49;;;;;;;11.93;5.50;;;22.60;63.30;;;;;;4884283;29;20080;-92
2023/09/07 09:46:17;;;;;;;9.93;4.65;;;22.80;63.40;;;;;;4899873;29;20053;-92
2023/09/07 09:48:44;;;;;;;9.13;4.32;;;22.80;61.20;;;;;;4899706;29;20052;-91
2023/09/07 09:51:14;;;;;;;11.45;4.80;;;22.90;59.70;;;;;;4884180;29;20072;-92
2023/09/07 09:53:42;;;;;;;9.27;4.43;;;23.00;60.60;;;;;;4884210;29;20041;-92
2023/09/07 09:56:10;;;;;;;9.93;4.57;;;23.00;59.80;;;;;;4899725;29;20105;-92
2023/09/07 09:58:37;;;;;;;8.80;4.00;;;23.10;58.70;;;;;;4899570;29;20076;-92
2023/09/07 10:01:07;;;;;;;9.13;4.30;;;23.30;58.60;;;;;;4899352;29;20048;-91
2023/09/07 10:03:47;;;;;;;10.43;4.93;;;23.30;57.50;;;;;;4884162;29;20121;-92
2023/09/07 10:06:22;;;;;;;9.60;4.28;;;23.30;58.20;;;;;;4899890;29;20572;-91
2023/09/07 10:08:59;;;;;;;10.33;4.80;;;23.30;58.70;;;;;;4883981;29;20147;-91
2023/09/07 10:11:31;;;;;;;9.50;4.10;;;23.30;57.40;;;;;;4899285;29;20490;-91
2023/09/07 10:14:05;;;;;;;9.15;5.53;;;23.40;58.30;;;;;;4883762;29;20045;-92
2023/09/07 10:16:50;;;;;;;13.23;5.57;;;23.50;59.50;;;;;;4899411;29;20045;-92
2023/09/07 10:19:22;;;;;;;12.30;5.28;;;23.50;60.20;;;;;;4899042;29;20172;-92
2023/09/07 10:21:50;;;;;;;10.73;5.47;;;23.50;61.00;;;;;;4899638;29;20056;-91
2023/09/07 10:24:26;;;;;;;10.68;5.60;;;23.60;60.40;;;;;;4899156;29;20048;-91
2023/09/07 10:27:05;;;;;;;10.68;4.97;;;23.80;60.60;;;;;;4899150;29;20045;-91
2023/09/07 10:29:49;;;;;;;12.18;5.22;;;23.80;60.30;;;;;;4898815;29;20064;-91
2023/09/07 10:32:21;;;;;;;10.85;5.07;;;23.90;61.10;;;;;;4882802;29;20048;-91
2023/09/07 10:34:50;;;;;;;10.53;5.07;;;24.10;59.00;;;;;;4883191;29;20081;-92
2023/09/07 10:37:18;;;;;;;10.98;4.78;;;24.10;59.60;;;;;;4883375;29;20052;-92
2023/09/07 10:39:45;;;;;;;9.82;4.78;;;24.10;59.10;;;;;;4883387;29;20143;-92
2023/09/07 10:42:23;;;;;;;10.60;4.75;;;24.10;56.90;;;;;;4883007;29;20056;-92
2023/09/07 10:44:52;;;;;;;10.85;5.32;;;24.10;57.90;;;;;;4883024;29;20105;-92
2023/09/07 10:47:19;;;;;;;11.17;5.13;;;24.10;60.20;;;;;;4883411;29;20473;-91
2023/09/07 10:49:47;;;;;;;10.13;5.22;;;24.10;59.00;;;;;;4898604;29;20567;-92
2023/09/07 10:52:14;;;;;;;12.52;5.50;;;24.20;60.70;;;;;;4883040;29;20049;-92
2023/09/07 10:54:41;;;;;;;11.77;5.13;;;24.30;59.80;;;;;;4898679;29;20080;-92
2023/09/07 10:57:09;;;;;;;10.23;4.97;;;24.40;58.40;;;;;;4898321;29;20051;-92
2023/09/07 10:59:36;;;;;;;14.53;5.17;;;24.50;56.90;;;;;;4883011;29;20396;-91
2023/09/07 11:02:07;;;;;;;9.52;4.65;;;24.50;57.70;;;;;;4898549;29;20052;-92
2023/09/07 11:04:34;;;;;;;11.18;4.47;;;24.70;58.60;;;;;;4883063;29;20056;-91
2023/09/07 11:07:02;;;;;;;8.93;4.22;;;24.70;58.30;;;;;;4898172;29;20051;-92
2023/09/07 11:09:32;;;;;;;10.02;4.18;;;24.70;55.70;;;;;;4882634;29;20148;-92
2023/09/07 11:12:06;;;;;;;9.90;4.33;;;24.70;54.40;;;;;;4882550;29;20141;-92
2023/09/07 11:14:33;;;;;;;9.43;4.38;;;24.80;56.40;;;;;;4898290;29;20059;-92
2023/09/07 11:17:03;;;;;;;10.80;3.97;;;25.00;58.20;;;;;;4898182;29;20562;-91
2023/09/07 11:19:34;;;;;;;9.85;3.88;;;25.10;54.30;;;;;;4898610;29;20452;-92
2023/09/07 11:22:03;;;;;;;8.52;3.88;;;25.10;53.60;;;;;;4898190;29;20052;-91
2023/09/07 11:24:34;;;;;;;8.67;3.97;;;25.00;55.30;;;;;;4898127;29;20112;-92
2023/09/07 11:27:02;;;;;;;9.65;3.85;;;25.10;53.60;;;;;;4898163;29;20048;-92
2023/09/07 11:29:33;;;;;;;10.57;4.40;;;25.10;53.50;;;;;;4882681;29;20143;-93
2023/09/07 11:32:08;;;;;;;9.55;4.35;;;25.20;55.60;;;;;;4882611;29;20063;-92
2023/09/07 11:34:47;;;;;;;9.55;4.13;;;25.30;54.10;;;;;;4897977;29;20049;-92
2023/09/07 11:37:14;;;;;;;8.40;4.10;;;25.40;52.90;;;;;;4882794;29;20052;-93
2023/09/07 11:39:41;;;;;;;8.45;4.00;;;25.40;52.80;;;;;;4882517;29;20049;-92
2023/09/07 11:42:08;;;;;;;32.67;5.88;;;25.40;53.60;;;;;;4884361;29;20044;-92
2023/09/07 11:44:35;;;;;;;9.73;4.85;;;25.50;55.30;;;;;;4886477;29;20044;-92
2023/09/07 11:47:04;;;;;;;9.25;4.22;;;25.60;56.20;;;;;;4902013;29;20044;-92
2023/09/07 11:49:32;;;;;;;9.67;4.23;;;25.60;56.50;;;;;;4901704;29;20105;-92
2023/09/07 11:51:59;;;;;;;11.32;4.45;;;25.70;54.10;;;;;;4885792;29;20515;-91
2023/09/07 11:54:27;;;;;;;14.85;4.00;;;25.70;53.80;;;;;;4901853;29;20100;-91
2023/09/07 11:56:54;;;;;;;8.40;3.97;;;25.80;56.90;;;;;;4901473;29;20147;-92
2023/09/07 11:59:21;;;;;;;9.88;3.90;;;25.90;53.80;;;;;;4886298;29;20055;-92
2023/09/07 12:01:48;;;;;;;9.03;4.37;;;26.00;54.90;;;;;;4901584;29;20056;-92
2023/09/07 12:04:15;;;;;;;10.20;4.47;;;25.90;54.30;;;;;;4886207;29;20526;-91
2023/09/07 12:06:43;;;;;;;10.30;4.75;;;25.80;54.00;;;;;;4886161;29;20052;-91
2023/09/07 12:09:10;;;;;;;9.85;4.50;;;25.70;54.60;;;;;;4885522;29;20049;-92
2023/09/07 12:11:37;;;;;;;9.35;4.63;;;25.80;54.00;;;;;;4901294;29;20049;-91
2023/09/07 12:14:05;;;;;;;8.70;4.00;;;25.80;53.30;;;;;;4901364;29;20072;-92
2023/09/07 12:16:32;;;;;;;8.93;4.55;;;25.80;54.50;;;;;;4901469;29;20052;-91
2023/09/07 12:18:59;;;;;;;9.85;4.43;;;25.80;53.90;;;;;;4901258;29;20040;-92
2023/09/07 12:21:26;;;;;;;11.43;4.78;;;25.80;54.20;;;;;;4885633;29;20076;-92
2023/09/07 12:23:53;;;;;;;9.63;4.72;;;25.60;53.50;;;;;;4885797;29;20048;-91
2023/09/07 12:26:21;;;;;;;9.27;4.47;;;25.70;54.90;;;;;;4901072;29;20503;-92
2023/09/07 12:28:48;;;;;;;9.77;4.15;;;25.80;54.20;;;;;;4901130;29;20558;-92
2023/09/07 12:31:16;;;;;;;11.40;4.35;;;25.90;53.90;;;;;;4901019;29;20057;-92
2023/09/07 12:33:43;;;;;;;9.48;4.35;;;26.00;55.80;;;;;;4885827;29;20139;-91
2023/09/07 12:36:11;;;;;;;10.85;4.13;;;26.00;54.30;;;;;;4900787;29;20052;-91
2023/09/07 12:38:39;;;;;;;16.23;4.60;;;26.00;52.70;;;;;;4900727;29;20049;-91
2023/09/07 12:41:06;;;;;;;8.93;4.47;;;26.00;53.60;;;;;;4885126;29;20056;-92
2023/09/07 12:43:33;;;;;;;10.93;4.78;;;26.00;55.10;;;;;;4885199;29;20056;-91